createdAt,value
2018-01-27T00:00:31.444Z,98279.45
2018-01-27T00:03:02.541Z,98280.16
2018-01-27T00:05:33.716Z,98284.46
2018-01-27T00:08:04.811Z,98290.17
2018-01-27T00:10:35.947Z,98297.29
2018-01-27T00:13:07.010Z,98299.25
2018-01-27T00:15:38.074Z,98308.55
2018-01-27T00:18:09.174Z,98312.23
2018-01-27T00:20:40.296Z,98309.16
2018-01-27T00:23:12.108Z,98315.98
2018-01-27T00:25:43.160Z,98324.52
2018-01-27T00:28:14.240Z,98319.25
2018-01-27T00:30:45.362Z,98313.80
2018-01-27T00:33:16.448Z,98316.19
2018-01-27T00:35:47.573Z,98319.56
2018-01-27T00:38:18.649Z,98333.34
2018-01-27T00:40:49.768Z,98324.95
2018-01-27T00:43:20.836Z,98318.80
2018-01-27T00:45:51.940Z,98322.43
2018-01-27T00:48:23.049Z,98312.39
2018-01-27T00:51:01.054Z,98320.58
2018-01-27T00:53:32.123Z,98311.98
2018-01-27T00:56:03.197Z,98316.77
2018-01-27T00:58:34.348Z,98312.90
2018-01-27T01:01:05.423Z,98314.09
2018-01-27T01:03:36.507Z,98315.34
2018-01-27T01:06:07.622Z,98317.58
2018-01-27T01:08:38.708Z,98323.07
2018-01-27T01:11:09.784Z,98322.48
2018-01-27T01:13:40.908Z,98326.92
2018-01-27T01:16:12.094Z,98332.92
2018-01-27T01:18:43.167Z,98341.84
2018-01-27T01:21:14.226Z,98336.34
2018-01-27T01:23:45.333Z,98338.11
2018-01-27T01:26:16.466Z,98343.47
2018-01-27T01:28:47.590Z,98344.95
2018-01-27T01:31:18.681Z,98348.94
2018-01-27T01:33:49.772Z,98351.42
2018-01-27T01:36:20.830Z,98351.27
2018-01-27T01:38:51.907Z,98351.27
2018-01-27T01:41:23.032Z,98347.08
2018-01-27T01:44:00.110Z,98355.80
2018-01-27T01:46:31.172Z,98357.31
2018-01-27T01:49:14.539Z,98357.72
2018-01-27T01:51:45.604Z,98360.02
2018-01-27T01:54:16.680Z,98373.91
2018-01-27T01:56:48.137Z,98368.49
2018-01-27T01:59:19.180Z,98380.01
2018-01-27T02:01:50.233Z,98387.64
2018-01-27T02:04:21.385Z,98385.48
2018-01-27T02:06:52.437Z,98386.20
2018-01-27T02:09:23.489Z,98384.14
2018-01-27T02:11:55.601Z,98380.78
2018-01-27T02:14:26.829Z,98388.38
2018-01-27T02:16:57.912Z,98386.50
2018-01-27T02:19:29.044Z,98386.33
2018-01-27T02:22:00.486Z,98387.84
2018-01-27T02:24:31.601Z,98389.97
2018-01-27T02:27:02.680Z,98399.47
2018-01-27T02:29:33.733Z,98402.39
2018-01-27T02:32:04.854Z,98403.31
2018-01-27T02:34:35.968Z,98406.94
2018-01-27T02:37:07.048Z,98412.06
2018-01-27T02:39:38.175Z,98413.09
2018-01-27T02:42:09.286Z,98410.66
2018-01-27T02:44:40.371Z,98402.14
2018-01-27T02:47:11.448Z,98398.91
2018-01-27T02:49:42.498Z,98407.45
2018-01-27T02:52:13.582Z,98404.13
2018-01-27T02:54:44.722Z,98407.66
2018-01-27T02:57:15.826Z,98415.18
2018-01-27T02:59:46.904Z,98417.80
2018-01-27T03:02:17.941Z,98422.61
2018-01-27T03:04:49.051Z,98430.99
2018-01-27T03:07:20.130Z,98434.92
2018-01-27T03:09:51.286Z,98442.16
2018-01-27T03:12:22.338Z,98444.39
2018-01-27T03:14:53.415Z,98443.89
2018-01-27T03:17:24.529Z,98444.16
2018-01-27T03:19:55.603Z,98441.77
2018-01-27T03:22:26.708Z,98442.34
2018-01-27T03:24:57.787Z,98447.10
2018-01-27T03:27:28.878Z,98448.34
2018-01-27T03:29:59.987Z,98450.66
2018-01-27T03:32:31.033Z,98451.16
2018-01-27T03:35:02.122Z,98453.61
2018-01-27T03:37:33.218Z,98446.25
2018-01-27T03:40:04.302Z,98451.07
2018-01-27T03:42:35.346Z,98455.12
2018-01-27T03:45:06.447Z,98459.24
2018-01-27T03:47:37.501Z,98470.23
2018-01-27T03:50:08.567Z,98473.23
2018-01-27T03:52:39.665Z,98477.16
2018-01-27T03:55:10.749Z,98478.17
2018-01-27T03:57:41.787Z,98479.45
2018-01-27T04:00:12.904Z,98475.53
2018-01-27T04:02:44.007Z,98476.05
2018-01-27T04:05:15.068Z,98484.37
2018-01-27T04:07:46.162Z,98484.99
2018-01-27T04:10:17.226Z,98495.06
2018-01-27T04:12:48.469Z,98489.71
2018-01-27T04:15:19.529Z,98495.25
2018-01-27T04:17:50.612Z,98497.86
2018-01-27T04:20:21.731Z,98508.54
2018-01-27T04:22:52.823Z,98512.14
2018-01-27T04:25:23.898Z,98508.91
2018-01-27T04:27:55.027Z,98509.38
2018-01-27T04:30:26.155Z,98515.02
2018-01-27T04:32:57.201Z,98522.80
2018-01-27T04:35:28.318Z,98529.15
2018-01-27T04:37:59.390Z,98528.13
2018-01-27T04:40:30.496Z,98523.75
2018-01-27T04:43:01.538Z,98528.77
2018-01-27T04:45:32.661Z,98531.32
2018-01-27T04:48:03.748Z,98546.58
2018-01-27T04:50:34.894Z,98546.39
2018-01-27T04:53:05.965Z,98543.99
2018-01-27T04:55:37.019Z,98558.38
2018-01-27T04:58:08.079Z,98559.13
2018-01-27T05:00:39.151Z,98558.73
2018-01-27T05:03:10.243Z,98561.49
2018-01-27T05:05:41.293Z,98567.31
2018-01-27T05:08:13.150Z,98583.51
2018-01-27T05:10:44.207Z,98593.34
2018-01-27T05:13:15.320Z,98601.64
2018-01-27T05:15:46.379Z,98603.22
2018-01-27T05:18:17.434Z,98600.23
2018-01-27T05:20:48.500Z,98602.95
2018-01-27T05:23:19.605Z,98600.79
2018-01-27T05:25:50.717Z,98601.64
2018-01-27T05:28:21.982Z,98596.01
2018-01-27T05:30:53.045Z,98601.95
2018-01-27T05:33:24.130Z,98605.70
2018-01-27T05:35:55.254Z,98621.13
2018-01-27T05:38:26.325Z,98622.29
2018-01-27T05:40:57.433Z,98633.47
2018-01-27T05:43:28.491Z,98629.42
2018-01-27T05:46:06.508Z,98632.66
2018-01-27T05:48:37.799Z,98625.23
2018-01-27T05:51:08.842Z,98631.08
2018-01-27T05:53:39.952Z,98642.58
2018-01-27T05:56:10.995Z,98641.22
2018-01-27T05:58:42.080Z,98643.26
2018-01-27T06:01:13.152Z,98652.45
2018-01-27T06:03:44.223Z,98655.05
2018-01-27T06:06:15.448Z,98651.86
2018-01-27T06:08:46.539Z,98661.88
2018-01-27T06:11:17.682Z,98664.27
2018-01-27T06:13:48.783Z,98672.70
2018-01-27T06:16:20.146Z,98678.02
2018-01-27T06:18:51.240Z,98684.53
2018-01-27T06:21:22.367Z,98686.11
2018-01-27T06:23:53.463Z,98692.47
2018-01-27T06:26:24.556Z,98695.27
2018-01-27T06:28:55.672Z,98699.51
2018-01-27T06:31:27.831Z,98699.69
2018-01-27T06:33:58.908Z,98704.73
2018-01-27T06:36:29.966Z,98702.22
2018-01-27T06:39:01.072Z,98708.27
2018-01-27T06:41:32.173Z,98718.64
2018-01-27T06:44:03.206Z,98715.93
2018-01-27T06:46:34.299Z,98719.77
2018-01-27T06:49:05.409Z,98718.91
2018-01-27T06:51:36.453Z,98722.25
2018-01-27T06:54:07.503Z,98723.10
2018-01-27T06:56:38.595Z,98720.30
2018-01-27T06:59:09.639Z,98721.88
2018-01-27T07:01:40.723Z,98731.28
2018-01-27T07:04:11.806Z,98735.11
2018-01-27T07:06:42.891Z,98742.05
2018-01-27T07:09:13.974Z,98742.95
2018-01-27T07:11:45.088Z,98748.73
2018-01-27T07:14:16.140Z,98749.17
2018-01-27T07:16:47.203Z,98752.83
2018-01-27T07:19:18.251Z,98760.94
2018-01-27T07:21:49.328Z,98768.95
2018-01-27T07:24:20.358Z,98772.41
2018-01-27T07:26:51.435Z,98772.69
2018-01-27T07:29:22.512Z,98780.64
2018-01-27T07:31:53.599Z,98783.66
2018-01-27T07:34:24.665Z,98780.69
2018-01-27T07:36:55.835Z,98795.91
2018-01-27T07:39:26.889Z,98800.47
2018-01-27T07:41:58.408Z,98807.95
2018-01-27T07:44:29.458Z,98805.84
2018-01-27T07:47:01.614Z,98807.02
2018-01-27T07:49:32.709Z,98805.42
2018-01-27T07:52:03.846Z,98809.34
2018-01-27T07:54:34.973Z,98815.40
2018-01-27T07:57:06.020Z,98819.64
2018-01-27T07:59:37.137Z,98834.42
2018-01-27T08:02:08.268Z,98837.03
2018-01-27T08:04:39.368Z,98837.27
2018-01-27T08:07:10.507Z,98841.28
2018-01-27T08:09:41.551Z,98844.84
2018-01-27T08:12:12.632Z,98847.19
2018-01-27T08:14:43.790Z,98841.50
2018-01-27T08:17:15.023Z,98845.75
2018-01-27T08:19:46.106Z,98846.52
2018-01-27T08:22:17.177Z,98854.06
2018-01-27T08:24:48.318Z,98861.38
2018-01-27T08:27:19.419Z,98857.27
2018-01-27T08:29:50.492Z,98862.14
2018-01-27T08:32:21.639Z,98854.57
2018-01-27T08:34:52.759Z,98858.58
2018-01-27T08:37:23.833Z,98857.70
2018-01-27T08:39:55.546Z,98852.33
2018-01-27T08:42:26.654Z,98860.66
2018-01-27T08:44:57.750Z,98863.27
2018-01-27T08:47:28.846Z,98867.21
2018-01-27T08:49:59.926Z,98867.64
2018-01-27T08:52:31.062Z,98877.89
2018-01-27T13:27:57.421Z,98950.67
2018-01-27T13:30:28.506Z,98950.60
2018-01-27T13:32:59.619Z,98949.52
2018-01-27T13:35:30.735Z,98944.66
2018-01-27T13:38:01.946Z,98937.04
2018-01-27T13:40:33.055Z,98955.14
2018-01-27T13:43:04.209Z,98952.62
2018-01-27T13:45:35.382Z,98951.03
2018-01-27T13:48:07.636Z,98947.08
2018-01-27T13:50:38.872Z,98940.20
2018-01-27T13:53:09.977Z,98936.19
2018-01-27T13:55:41.062Z,98937.21
2018-01-27T13:58:12.133Z,98941.27
2018-01-27T14:00:43.434Z,98946.61
2018-01-27T14:03:15.461Z,98951.89
2018-01-27T14:05:46.723Z,98953.88
2018-01-27T14:08:17.892Z,98947.60
2018-01-27T14:10:49.017Z,98956.25
2018-01-27T14:13:20.169Z,98963.91
2018-01-27T14:15:51.578Z,98969.73
2018-01-27T14:18:22.796Z,98969.66
2018-01-27T14:20:53.952Z,98976.98
2018-01-27T14:23:25.037Z,98981.63
2018-01-27T14:25:56.133Z,98981.68
2018-01-27T14:28:27.255Z,98985.77
2018-01-27T14:30:58.370Z,98987.51
2018-01-27T14:33:29.439Z,98986.95
2018-01-27T14:36:00.598Z,98989.66
2018-01-27T14:38:31.660Z,99003.52
2018-01-27T14:41:02.810Z,99001.32
2018-01-27T14:43:33.899Z,99002.87
2018-01-27T14:46:05.587Z,99009.03
2018-01-27T14:48:36.670Z,99012.28
2018-01-27T14:51:07.798Z,99013.45
2018-01-27T14:53:39.657Z,99016.48
2018-01-27T14:56:10.774Z,99014.81
2018-01-27T14:58:41.839Z,99019.27
2018-01-27T15:01:12.965Z,99018.33
2018-01-27T15:03:44.009Z,99020.55
2018-01-27T15:06:15.082Z,99031.69
2018-01-27T15:08:46.421Z,99029.26
2018-01-27T15:11:17.679Z,99037.69
2018-01-27T15:13:49.718Z,99036.37
2018-01-27T15:16:20.838Z,99035.34
2018-01-27T15:18:51.969Z,99044.03
2018-01-27T15:21:23.038Z,99036.85
2018-01-27T15:23:54.184Z,99039.95
2018-01-27T15:26:25.259Z,99038.59
2018-01-27T15:28:56.558Z,99041.00
2018-01-27T15:31:27.655Z,99044.30
2018-01-27T15:33:58.770Z,99032.27
2018-01-27T15:36:29.873Z,99030.36
2018-01-27T15:39:01.958Z,99032.49
2018-01-27T15:41:33.028Z,99029.39
2018-01-27T15:44:04.234Z,99034.83
2018-01-27T15:46:35.516Z,99037.05
2018-01-27T15:49:06.573Z,99042.81
2018-01-27T15:51:37.690Z,99047.73
2018-01-27T15:54:08.752Z,99054.47
2018-01-27T15:56:39.895Z,99072.52
2018-01-27T15:59:11.045Z,99077.59
2018-01-27T16:01:42.129Z,99086.71
2018-01-27T16:04:13.181Z,99087.42
2018-01-27T16:06:44.310Z,99087.23
2018-01-27T16:09:15.741Z,99084.61
2018-01-27T16:11:46.964Z,99090.36
2018-01-27T16:14:18.086Z,99098.41
2018-01-27T16:16:49.191Z,99100.91
2018-01-27T16:19:20.283Z,99110.32
2018-01-27T16:21:51.392Z,99107.22
2018-01-27T16:24:22.477Z,99114.35
2018-01-27T16:26:53.572Z,99112.25
2018-01-27T16:29:24.680Z,99119.48
2018-01-27T16:31:55.752Z,99121.01
2018-01-27T16:34:27.588Z,99127.70
2018-01-27T16:36:58.672Z,99124.39
2018-01-27T16:39:29.767Z,99121.23
2018-01-27T16:42:00.866Z,99128.52
2018-01-27T16:44:31.988Z,99130.23
2018-01-27T16:47:03.125Z,99129.86
2018-01-27T16:49:34.212Z,99127.67
2018-01-27T16:52:05.316Z,99126.05
2018-01-27T16:54:36.424Z,99123.39
2018-01-27T16:57:07.486Z,99129.92
2018-01-27T16:59:38.653Z,99138.61
2018-01-27T17:02:09.768Z,99139.43
2018-01-27T17:04:40.847Z,99149.03
2018-01-27T17:07:11.915Z,99143.72
2018-01-27T17:09:42.987Z,99151.72
2018-01-27T17:12:14.263Z,99149.22
2018-01-27T17:14:45.334Z,99161.29
2018-01-27T17:17:16.608Z,99169.82
2018-01-27T17:19:47.814Z,99175.38
2018-01-27T17:22:19.204Z,99178.14
2018-01-27T17:24:50.326Z,99184.43
2018-01-27T17:27:21.724Z,99177.02
2018-01-27T17:29:52.803Z,99179.12
2018-01-27T17:32:24.004Z,99175.42
2018-01-27T17:34:55.062Z,99173.61
2018-01-27T17:37:26.114Z,99164.70
2018-01-27T17:39:57.338Z,99164.98
2018-01-27T17:42:28.416Z,99170.80
2018-01-27T17:44:59.504Z,99175.92
2018-01-27T17:47:30.545Z,99180.67
2018-01-27T17:50:01.672Z,99186.97
2018-01-27T17:52:32.687Z,99190.22
2018-01-27T17:55:03.782Z,99183.25
2018-01-27T17:57:34.933Z,99187.22
2018-01-27T18:00:06.068Z,99190.75
2018-01-27T18:02:37.213Z,99193.44
2018-01-27T18:05:08.318Z,99197.89
2018-01-27T18:07:39.396Z,99197.72
2018-01-27T18:10:10.509Z,99196.77
2018-01-27T18:12:41.621Z,99196.67
2018-01-27T18:15:12.686Z,99195.55
2018-01-27T18:17:43.747Z,99196.59
2018-01-27T18:20:14.903Z,99197.58
2018-01-27T18:22:45.990Z,99206.50
2018-01-27T18:25:17.071Z,99207.87
2018-01-27T18:27:48.161Z,99210.09
2018-01-27T18:30:19.283Z,99205.47
2018-01-27T18:32:50.342Z,99213.69
2018-01-27T18:35:21.482Z,99203.52
2018-01-27T18:37:54.303Z,99209.89
2018-01-27T18:40:25.385Z,99196.41
2018-01-27T18:42:56.478Z,99192.97
2018-01-27T18:45:27.522Z,99194.02
2018-01-27T18:47:58.682Z,99197.72
2018-01-27T18:50:29.751Z,99191.34
2018-01-27T18:53:00.837Z,99192.78
2018-01-27T18:55:31.879Z,99190.07
2018-01-27T18:58:03.223Z,99183.14
2018-01-27T19:00:34.326Z,99192.29
2018-01-27T19:03:05.438Z,99196.59
2018-01-27T19:05:36.547Z,99199.25
2018-01-27T19:08:07.634Z,99203.52
2018-01-27T19:10:38.702Z,99192.61
2018-01-27T19:13:09.765Z,99189.85
2018-01-27T19:15:40.886Z,99181.66
2018-01-27T19:18:12.015Z,99193.95
2018-01-27T19:20:43.132Z,99201.65
2018-01-27T19:23:14.212Z,99206.00
2018-01-27T19:25:46.122Z,99204.91
2018-01-27T19:28:17.174Z,99202.11
2018-01-27T19:30:48.283Z,99201.94
2018-01-27T19:33:19.438Z,99198.77
2018-01-27T19:35:50.546Z,99208.44
2018-01-27T19:38:22.525Z,99212.56
2018-01-27T19:40:53.681Z,99202.52
2018-01-27T19:43:24.794Z,99214.86
2018-01-27T19:45:55.835Z,99232.46
2018-01-27T19:48:26.990Z,99235.73
2018-01-27T19:50:58.080Z,99237.05
2018-01-27T19:53:29.187Z,99223.47
2018-01-27T19:56:00.344Z,99213.21
2018-01-27T19:58:31.466Z,99205.86
2018-01-27T20:01:02.592Z,99205.78
2018-01-27T20:03:33.685Z,99214.16
2018-01-27T20:06:04.857Z,99222.39
2018-01-27T20:08:35.992Z,99219.27
2018-01-27T20:11:07.151Z,99227.63
2018-01-27T20:13:38.238Z,99227.27
2018-01-27T20:16:09.276Z,99232.88
2018-01-27T20:18:40.362Z,99226.75
2018-01-27T20:21:11.492Z,99212.52
2018-01-27T20:23:42.634Z,99205.19
2018-01-27T20:26:14.644Z,99200.55
2018-01-27T20:28:45.764Z,99196.17
2018-01-27T20:31:16.790Z,99193.70
2018-01-27T20:33:47.901Z,99196.15
2018-01-27T20:36:18.957Z,99201.73
2018-01-27T20:38:50.064Z,99203.50
2018-01-27T20:41:21.163Z,99200.44
2018-01-27T20:43:52.227Z,99213.87
2018-01-27T20:46:23.325Z,99211.32
2018-01-27T20:48:54.370Z,99211.44
2018-01-27T20:51:25.480Z,99214.03
2018-01-27T20:53:56.571Z,99218.63
2018-01-27T20:56:27.672Z,99215.38
2018-01-27T20:58:58.791Z,99224.95
2018-01-27T21:01:29.935Z,99224.92
2018-01-27T21:04:01.090Z,99231.34
2018-01-27T21:06:32.257Z,99227.25
2018-01-27T21:09:03.451Z,99232.37
2018-01-27T21:11:34.518Z,99229.59
2018-01-27T21:14:05.630Z,99221.27
2018-01-27T21:16:36.694Z,99226.58
2018-01-27T21:19:07.768Z,99220.36
2018-01-27T21:21:38.907Z,99220.98
2018-01-27T21:24:10.014Z,99214.61
2018-01-27T21:26:41.140Z,99223.05
2018-01-27T21:29:12.265Z,99218.99
2018-01-27T21:31:43.340Z,99224.95
2018-01-27T21:34:14.431Z,99230.22
2018-01-27T21:36:46.244Z,99238.31
2018-01-27T21:39:17.333Z,99233.42
2018-01-27T21:41:48.492Z,99239.66
2018-01-27T21:44:19.546Z,99228.39
2018-01-27T21:46:50.661Z,99222.16
2018-01-27T21:49:21.723Z,99212.45
2018-01-27T21:51:52.805Z,99207.21
2018-01-27T21:54:23.908Z,99199.55
2018-01-27T21:56:54.986Z,99196.25
2018-01-27T21:59:26.102Z,99189.66
2018-01-27T22:01:57.165Z,99194.14
2018-01-27T22:04:28.303Z,99184.59
2018-01-27T22:06:59.372Z,99184.60
2018-01-27T22:09:30.468Z,99190.57
2018-01-27T22:12:01.550Z,99182.15
2018-01-27T22:14:32.676Z,99172.06
2018-01-27T22:17:03.751Z,99166.22
2018-01-27T22:19:34.917Z,99161.84
2018-01-27T22:22:05.957Z,99157.98
2018-01-27T22:24:37.038Z,99175.55
2018-01-27T22:27:08.169Z,99186.31
2018-01-27T22:29:39.287Z,99200.45
2018-01-27T22:32:10.419Z,99196.28
2018-01-27T22:34:41.523Z,99201.25
2018-01-27T22:37:12.605Z,99199.75
2018-01-27T22:39:43.717Z,99183.97
2018-01-27T22:42:14.842Z,99196.05
2018-01-27T22:44:45.914Z,99181.16
2018-01-27T22:47:17.013Z,99169.07
2018-01-27T22:49:48.117Z,99161.92
2018-01-27T22:52:19.249Z,99163.28
2018-01-27T22:54:50.360Z,99156.53
2018-01-27T22:57:21.468Z,99158.56
2018-01-27T22:59:52.583Z,99164.50
2018-01-27T23:02:23.639Z,99175.67
2018-01-27T23:04:54.749Z,99177.71
2018-01-27T23:07:25.904Z,99164.67
2018-01-27T23:09:57.021Z,99162.42
2018-01-27T23:12:28.071Z,99154.05
2018-01-27T23:14:59.242Z,99160.29
2018-01-27T23:17:30.346Z,99159.02
2018-01-27T23:20:01.628Z,99160.38
2018-01-27T23:22:32.772Z,99161.23
2018-01-27T23:25:03.844Z,99163.36
2018-01-27T23:27:34.921Z,99169.83
2018-01-27T23:30:05.973Z,99170.96
2018-01-27T23:32:37.090Z,99182.97
2018-01-27T23:35:08.207Z,99176.62
2018-01-27T23:37:39.266Z,99172.36
2018-01-27T23:40:10.310Z,99167.70
2018-01-27T23:42:41.389Z,99170.69
2018-01-27T23:45:12.529Z,99161.09
2018-01-27T23:47:43.592Z,99152.48
2018-01-27T23:50:14.690Z,99147.02
2018-01-27T23:52:45.746Z,99138.83
2018-01-27T23:55:16.863Z,99145.56
2018-01-27T23:57:47.949Z,99147.20
